createdAt,value
2017-09-26T00:01:02.230Z,99541.89
2017-09-26T00:03:28.468Z,99536.50
2017-09-26T00:05:54.705Z,99539.77
2017-09-26T00:08:20.925Z,99540.64
2017-09-26T00:10:47.160Z,99540.96
2017-09-26T00:13:13.395Z,99539.27
2017-09-26T00:15:39.609Z,99537.47
2017-09-26T00:18:05.758Z,99534.90
2017-09-26T00:20:31.976Z,99528.70
2017-09-26T00:22:58.209Z,99531.38
2017-09-26T00:25:24.440Z,99521.74
2017-09-26T00:27:50.660Z,99516.81
2017-09-26T00:30:16.893Z,99518.88
2017-09-26T00:32:43.133Z,99522.65
2017-09-26T00:35:09.348Z,99521.67
2017-09-26T00:37:35.580Z,99516.95
2017-09-26T00:40:01.860Z,99523.72
2017-09-26T00:42:28.040Z,99522.21
2017-09-26T00:44:54.271Z,99529.04
2017-09-26T00:47:20.503Z,99530.77
2017-09-26T00:49:46.734Z,99528.02
2017-09-26T00:52:12.960Z,99524.94
2017-09-26T00:54:39.203Z,99529.94
2017-09-26T00:57:05.437Z,99526.03
2017-09-26T00:59:31.646Z,99533.48
2017-09-26T01:01:57.884Z,99539.48
2017-09-26T01:04:24.098Z,99540.22
2017-09-26T01:06:50.324Z,99543.92
2017-09-26T01:09:16.597Z,99535.87
2017-09-26T01:11:42.791Z,99540.45
2017-09-26T01:14:09.030Z,99541.26
2017-09-26T01:16:35.275Z,99541.93
2017-09-26T01:19:01.469Z,99542.09
2017-09-26T01:21:27.633Z,99539.58
2017-09-26T01:23:53.856Z,99542.92
2017-09-26T01:26:20.070Z,99545.05
2017-09-26T01:28:46.295Z,99549.47
2017-09-26T01:31:12.536Z,99550.02
2017-09-26T01:33:38.768Z,99553.06
2017-09-26T01:36:04.999Z,99554.39
2017-09-26T01:38:31.229Z,99548.20
2017-09-26T01:40:57.457Z,99544.83
2017-09-26T01:43:23.686Z,99540.59
2017-09-26T01:45:49.917Z,99529.77
2017-09-26T01:48:16.141Z,99526.06
2017-09-26T01:50:42.366Z,99530.91
2017-09-26T01:53:08.585Z,99537.65
2017-09-26T01:55:34.840Z,99536.69
2017-09-26T01:58:01.065Z,99540.28
2017-09-26T02:00:27.288Z,99536.84
2017-09-26T02:02:53.530Z,99526.33
2017-09-26T02:05:19.766Z,99528.73
2017-09-26T02:07:45.990Z,99519.41
2017-09-26T02:10:12.212Z,99526.10
2017-09-26T02:12:38.427Z,99519.45
2017-09-26T02:15:04.673Z,99521.94
2017-09-26T02:17:30.900Z,99523.27
2017-09-26T02:19:57.126Z,99521.69
2017-09-26T02:22:23.355Z,99524.96
2017-09-26T02:24:49.591Z,99525.84
2017-09-26T02:27:15.831Z,99527.95
2017-09-26T02:29:42.066Z,99529.16
2017-09-26T02:32:08.281Z,99530.02
2017-09-26T02:34:34.503Z,99524.61
2017-09-26T02:37:00.731Z,99528.73
2017-09-26T02:39:26.975Z,99530.23
2017-09-26T02:41:53.192Z,99529.47
2017-09-26T02:44:19.434Z,99529.69
2017-09-26T02:46:45.671Z,99525.33
2017-09-26T02:49:11.894Z,99517.77
2017-09-26T02:51:38.534Z,99517.82
2017-09-26T02:54:04.759Z,99513.11
2017-09-26T02:56:30.972Z,99506.47
2017-09-26T02:58:57.201Z,99509.22
2017-09-26T03:01:23.443Z,99512.00
2017-09-26T03:03:49.687Z,99510.19
2017-09-26T03:06:15.829Z,99512.77
2017-09-26T03:08:42.023Z,99508.73
2017-09-26T03:11:08.260Z,99507.45
2017-09-26T03:13:34.497Z,99509.89
2017-09-26T03:16:00.724Z,99504.97
2017-09-26T03:18:26.951Z,99502.67
2017-09-26T03:20:53.189Z,99505.20
2017-09-26T03:23:19.420Z,99508.88
2017-09-26T03:25:45.604Z,99519.30
2017-09-26T03:28:11.861Z,99518.44
2017-09-26T03:30:38.092Z,99510.52
2017-09-26T03:33:04.328Z,99514.15
2017-09-26T03:35:30.563Z,99523.11
2017-09-26T03:37:56.811Z,99523.53
2017-09-26T03:40:23.022Z,99529.53
2017-09-26T03:42:49.251Z,99530.64
2017-09-26T03:45:15.483Z,99528.16
2017-09-26T03:47:41.701Z,99528.93
2017-09-26T03:50:07.932Z,99533.69
2017-09-26T03:52:34.078Z,99522.59
2017-09-26T03:55:00.293Z,99520.45
2017-09-26T03:57:26.520Z,99518.56
2017-09-26T03:59:52.762Z,99516.77
2017-09-26T04:02:18.989Z,99517.53
2017-09-26T04:04:45.201Z,99520.20
2017-09-26T04:07:11.467Z,99523.02
2017-09-26T04:09:37.675Z,99529.83
2017-09-26T04:12:03.902Z,99526.23
2017-09-26T04:14:30.128Z,99536.52
2017-09-26T04:16:56.355Z,99534.33
2017-09-26T04:19:22.581Z,99529.41
2017-09-26T04:21:48.824Z,99530.69
2017-09-26T04:24:15.045Z,99535.79
2017-09-26T04:26:41.279Z,99526.61
2017-09-26T04:29:07.512Z,99532.82
2017-09-26T04:31:33.745Z,99536.01
2017-09-26T04:33:59.912Z,99526.48
2017-09-26T04:36:26.098Z,99529.81
2017-09-26T04:38:52.331Z,99535.05
2017-09-26T04:41:18.566Z,99535.70
2017-09-26T04:43:44.769Z,99538.34
2017-09-26T04:46:11.021Z,99536.70
2017-09-26T04:48:37.229Z,99531.24
2017-09-26T04:51:03.479Z,99535.19
2017-09-26T04:53:29.703Z,99537.55
2017-09-26T04:55:55.940Z,99533.45
2017-09-26T04:58:22.159Z,99535.95
2017-09-26T05:00:48.390Z,99538.19
2017-09-26T05:03:14.614Z,99537.64
2017-09-26T05:05:40.793Z,99530.14
2017-09-26T05:08:07.004Z,99528.80
2017-09-26T05:10:33.202Z,99530.81
2017-09-26T05:12:59.358Z,99528.63
2017-09-26T05:15:25.554Z,99531.92
2017-09-26T05:17:51.793Z,99530.19
2017-09-26T05:20:18.050Z,99530.14
2017-09-26T05:22:44.254Z,99533.63
2017-09-26T05:25:10.490Z,99535.47
2017-09-26T05:27:36.722Z,99535.27
2017-09-26T05:30:02.950Z,99534.23
2017-09-26T05:32:29.182Z,99533.45
2017-09-26T05:34:55.432Z,99537.59
2017-09-26T05:37:21.634Z,99539.88
2017-09-26T05:39:47.864Z,99541.61
2017-09-26T05:42:14.088Z,99539.68
2017-09-26T05:44:40.324Z,99530.67
2017-09-26T05:47:06.538Z,99531.94
2017-09-26T05:49:32.787Z,99535.02
2017-09-26T05:51:58.994Z,99529.63
2017-09-26T05:54:25.229Z,99531.69
2017-09-26T05:56:51.471Z,99532.84
2017-09-26T05:59:17.729Z,99530.22
2017-09-26T06:01:43.945Z,99529.66
2017-09-26T06:04:10.155Z,99529.88
2017-09-26T06:06:36.372Z,99537.94
2017-09-26T06:09:02.618Z,99534.54
2017-09-26T06:11:28.843Z,99532.95
2017-09-26T06:13:55.072Z,99530.53
2017-09-26T06:16:21.308Z,99530.22
2017-09-26T06:18:47.531Z,99534.66
2017-09-26T06:21:13.755Z,99536.09
2017-09-26T06:23:39.992Z,99542.77
2017-09-26T06:26:06.222Z,99539.81
2017-09-26T06:28:32.481Z,99542.67
2017-09-26T06:30:58.717Z,99536.25
2017-09-26T06:33:24.919Z,99545.53
2017-09-26T06:35:51.139Z,99544.25
2017-09-26T06:38:17.385Z,99543.09
2017-09-26T06:40:43.538Z,99545.75
2017-09-26T06:43:09.749Z,99550.48
2017-09-26T06:45:36.033Z,99554.27
2017-09-26T06:48:02.302Z,99552.80
2017-09-26T06:50:28.519Z,99556.82
2017-09-26T06:52:54.746Z,99557.73
2017-09-26T06:55:20.984Z,99554.59
2017-09-26T06:57:47.218Z,99554.98
2017-09-26T07:00:13.452Z,99561.41
2017-09-26T07:02:39.676Z,99560.16
2017-09-26T07:05:05.904Z,99572.22
2017-09-26T07:07:32.159Z,99565.95
2017-09-26T07:09:58.357Z,99564.51
2017-09-26T07:12:24.622Z,99563.97
2017-09-26T07:14:50.841Z,99566.83
2017-09-26T07:17:17.042Z,99567.92
2017-09-26T07:19:43.279Z,99574.16
2017-09-26T07:22:09.533Z,99572.08
2017-09-26T07:24:35.736Z,99574.51
2017-09-26T07:27:01.964Z,99573.77
2017-09-26T07:29:28.205Z,99583.65
2017-09-26T07:31:54.434Z,99582.80
2017-09-26T07:34:20.641Z,99589.91
2017-09-26T07:36:46.908Z,99588.39
2017-09-26T07:39:13.129Z,99588.30
2017-09-26T07:41:39.340Z,99587.11
2017-09-26T07:44:05.571Z,99590.81
2017-09-26T07:46:31.820Z,99580.89
2017-09-26T07:48:58.030Z,99582.47
2017-09-26T07:51:24.279Z,99584.37
2017-09-26T07:53:50.490Z,99577.52
2017-09-26T07:56:16.735Z,99570.77
2017-09-26T07:58:42.963Z,99568.82
2017-09-26T08:01:09.174Z,99568.86
2017-09-26T08:03:35.316Z,99558.48
2017-09-26T08:06:01.560Z,99556.34
2017-09-26T08:08:27.771Z,99557.42
2017-09-26T08:10:53.998Z,99550.09
2017-09-26T08:13:20.244Z,99547.81
2017-09-26T08:15:46.387Z,99545.81
2017-09-26T08:18:12.584Z,99540.66
2017-09-26T08:20:38.839Z,99542.28
2017-09-26T08:23:05.041Z,99546.86
2017-09-26T08:25:31.292Z,99541.06
2017-09-26T08:27:57.504Z,99535.81
2017-09-26T08:30:23.655Z,99533.63
2017-09-26T08:32:49.867Z,99541.08
2017-09-26T08:35:16.086Z,99539.80
2017-09-26T08:37:42.309Z,99533.53
2017-09-26T08:40:08.559Z,99531.47
2017-09-26T08:42:34.785Z,99528.12
2017-09-26T08:45:01.023Z,99524.80
2017-09-26T08:47:27.179Z,99517.28
2017-09-26T08:49:53.350Z,99514.15
2017-09-26T08:52:19.529Z,99506.95
2017-09-26T08:54:45.695Z,99501.73
2017-09-26T08:57:11.870Z,99498.34
2017-09-26T08:59:38.030Z,99491.85
2017-09-26T09:02:04.182Z,99493.80
2017-09-26T09:04:30.334Z,99491.37
2017-09-26T09:06:56.510Z,99493.80
2017-09-26T09:09:22.668Z,99487.92
2017-09-26T09:11:48.814Z,99502.47
2017-09-26T09:14:14.970Z,99501.23
2017-09-26T09:16:41.128Z,99499.45
2017-09-26T09:19:07.292Z,99502.66
2017-09-26T09:21:33.460Z,99510.04
2017-09-26T09:23:59.654Z,99509.11
2017-09-26T09:26:25.913Z,99512.00
2017-09-26T09:28:52.113Z,99505.40
2017-09-26T09:31:18.367Z,99507.20
2017-09-26T09:33:44.579Z,99507.92
2017-09-26T09:36:10.810Z,99513.62
2017-09-26T09:38:37.055Z,99514.10
2017-09-26T09:41:03.269Z,99515.63
2017-09-26T09:43:29.513Z,99511.66
2017-09-26T09:45:55.757Z,99514.68
2017-09-26T09:48:21.956Z,99513.82
2017-09-26T09:50:48.197Z,99517.48
2017-09-26T09:53:14.433Z,99521.02
2017-09-26T09:55:40.659Z,99516.94
2017-09-26T09:58:06.885Z,99513.27
2017-09-26T10:00:33.108Z,99513.84
2017-09-26T10:02:59.343Z,99515.84
2017-09-26T10:05:25.560Z,99513.89
2017-09-26T10:07:51.827Z,99518.48
2017-09-26T10:10:18.039Z,99521.17
2017-09-26T10:12:44.269Z,99524.89
2017-09-26T10:15:10.475Z,99524.47
2017-09-26T10:17:36.724Z,99515.25
2017-09-26T10:20:02.968Z,99520.73
2017-09-26T10:22:29.182Z,99523.17
2017-09-26T10:24:55.404Z,99517.78
2017-09-26T10:27:21.651Z,99520.34
2017-09-26T10:29:47.879Z,99511.61
2017-09-26T10:32:14.105Z,99517.27
2017-09-26T10:34:40.335Z,99517.72
2017-09-26T10:37:06.593Z,99516.62
2017-09-26T10:39:32.814Z,99513.38
2017-09-26T10:41:59.024Z,99508.52
2017-09-26T10:44:25.243Z,99502.71
2017-09-26T10:46:51.521Z,99504.37
2017-09-26T10:49:17.696Z,99497.74
2017-09-26T10:51:43.930Z,99492.31
2017-09-26T10:54:10.172Z,99498.99
2017-09-26T10:56:36.378Z,99495.25
2017-09-26T10:59:02.630Z,99495.58
2017-09-26T11:01:28.861Z,99493.31
2017-09-26T11:03:55.096Z,99493.47
2017-09-26T11:06:21.347Z,99493.36
2017-09-26T11:08:47.536Z,99487.77
2017-09-26T11:11:13.777Z,99488.56
2017-09-26T11:13:40.013Z,99489.08
2017-09-26T11:16:06.235Z,99485.64
2017-09-26T11:18:32.478Z,99483.84
2017-09-26T11:20:58.711Z,99493.89
2017-09-26T11:23:24.934Z,99487.53
2017-09-26T11:25:51.143Z,99492.36
2017-09-26T11:28:17.394Z,99487.91
2017-09-26T11:30:43.593Z,99485.47
2017-09-26T11:33:09.849Z,99482.90
2017-09-26T11:35:36.089Z,99477.60
2017-09-26T11:38:02.298Z,99470.14
2017-09-26T11:40:28.545Z,99469.13
2017-09-26T11:42:55.268Z,99471.42
2017-09-26T11:58:21.513Z,99470.72
2017-09-26T12:00:47.747Z,99465.67
2017-09-26T12:03:13.958Z,99470.72
2017-09-26T12:05:40.186Z,99461.66
2017-09-26T12:08:06.428Z,99461.73
2017-09-26T12:10:32.646Z,99462.05
2017-09-26T12:12:58.879Z,99459.31
2017-09-26T12:15:25.107Z,99456.78
2017-09-26T12:17:51.327Z,99453.63
2017-09-26T12:20:17.595Z,99451.74
2017-09-26T12:22:43.785Z,99453.27
2017-09-26T12:25:10.021Z,99452.33
2017-09-26T12:27:36.276Z,99451.05
2017-09-26T12:30:02.475Z,99441.32
2017-09-26T12:32:28.704Z,99445.80
2017-09-26T12:34:54.964Z,99436.77
2017-09-26T12:37:21.168Z,99440.39
2017-09-26T12:39:47.404Z,99439.04
2017-09-26T12:42:13.623Z,99441.11
2017-09-26T12:44:39.888Z,99445.84
2017-09-26T12:47:06.097Z,99460.02
2017-09-26T12:49:32.335Z,99457.23
2017-09-26T12:51:58.576Z,99458.03
2017-09-26T12:54:24.782Z,99453.23
2017-09-26T12:56:50.966Z,99460.67
2017-09-26T12:59:17.224Z,99466.77
2017-09-26T13:01:43.485Z,99476.97
2017-09-26T13:04:09.678Z,99478.92
2017-09-26T13:06:35.942Z,99465.80
2017-09-26T13:09:02.312Z,99476.74
2017-09-26T13:11:28.532Z,99472.45
2017-09-26T13:13:54.718Z,99480.31
2017-09-26T13:16:21.970Z,99479.64
2017-09-26T13:18:48.265Z,99466.78
2017-09-26T13:21:14.608Z,99471.98
2017-09-26T13:23:40.895Z,99462.41
2017-09-26T13:26:07.138Z,99462.03
2017-09-26T13:28:33.361Z,99474.95
2017-09-26T13:30:59.622Z,99468.83
2017-09-26T13:33:25.920Z,99466.52
2017-09-26T13:35:52.133Z,99466.22
2017-09-26T13:38:18.376Z,99462.41
2017-09-26T13:40:44.584Z,99466.27
2017-09-26T13:43:10.816Z,99458.42
2017-09-26T13:45:37.102Z,99464.89
2017-09-26T13:48:03.394Z,99468.27
2017-09-26T13:50:29.599Z,99464.75
2017-09-26T13:52:55.830Z,99460.66
2017-09-26T13:55:22.010Z,99469.55
2017-09-26T13:57:48.200Z,99473.17
2017-09-26T14:00:14.454Z,99482.45
2017-09-26T14:02:41.190Z,99484.09
2017-09-26T14:05:07.419Z,99479.88
2017-09-26T14:07:33.632Z,99488.92
2017-09-26T14:09:59.871Z,99480.20
2017-09-26T14:12:26.083Z,99476.82
2017-09-26T14:14:52.314Z,99484.48
2017-09-26T14:17:18.587Z,99481.63
2017-09-26T14:19:44.764Z,99482.81
2017-09-26T14:22:10.997Z,99486.33
2017-09-26T14:24:37.223Z,99486.14
2017-09-26T14:27:03.462Z,99483.33
2017-09-26T14:29:29.682Z,99479.95
2017-09-26T14:31:55.935Z,99477.52
2017-09-26T14:34:22.159Z,99480.64
2017-09-26T14:36:48.384Z,99484.61
2017-09-26T14:39:14.615Z,99477.28
2017-09-26T14:41:40.842Z,99489.31
2017-09-26T14:44:07.099Z,99483.44
2017-09-26T14:46:33.317Z,99489.30
2017-09-26T14:48:59.569Z,99489.23
2017-09-26T14:51:25.789Z,99493.41
2017-09-26T14:53:52.018Z,99496.22
2017-09-26T14:56:18.244Z,99501.70
2017-09-26T14:58:44.462Z,99498.55
2017-09-26T15:01:10.692Z,99502.80
2017-09-26T15:03:36.913Z,99508.94
2017-09-26T15:06:03.141Z,99507.41
2017-09-26T15:08:29.400Z,99513.89
2017-09-26T15:10:55.570Z,99526.03
2017-09-26T15:13:21.824Z,99525.98
2017-09-26T15:15:48.033Z,99530.74
2017-09-26T15:18:14.291Z,99530.03
2017-09-26T15:20:40.560Z,99532.83
2017-09-26T15:23:06.749Z,99525.20
2017-09-26T15:25:32.982Z,99529.16
2017-09-26T15:27:59.203Z,99527.39
2017-09-26T15:30:25.435Z,99536.11
2017-09-26T15:32:51.609Z,99531.73
2017-09-26T15:35:17.796Z,99532.34
2017-09-26T15:37:44.038Z,99525.63
2017-09-26T15:40:10.295Z,99529.02
2017-09-26T15:42:36.477Z,99529.88
2017-09-26T15:45:02.721Z,99525.39
2017-09-26T15:47:28.949Z,99520.31
2017-09-26T15:49:55.189Z,99530.67
2017-09-26T15:52:21.397Z,99533.84
2017-09-26T15:54:47.641Z,99547.38
2017-09-26T15:57:13.871Z,99550.66
2017-09-26T15:59:40.085Z,99556.06
2017-09-26T16:02:06.332Z,99558.07
2017-09-26T16:04:32.553Z,99557.52
2017-09-26T16:06:58.790Z,99556.57
2017-09-26T16:09:25.041Z,99562.64
2017-09-26T16:11:51.252Z,99559.05
2017-09-26T16:14:17.486Z,99563.66
2017-09-26T16:16:43.701Z,99570.29
2017-09-26T16:19:09.946Z,99562.56
2017-09-26T16:21:36.158Z,99569.34
2017-09-26T16:24:02.398Z,99573.26
2017-09-26T16:26:28.622Z,99568.89
2017-09-26T16:28:54.854Z,99580.56
2017-09-26T16:31:21.084Z,99575.09
2017-09-26T16:33:47.314Z,99586.31
2017-09-26T16:36:13.556Z,99586.06
2017-09-26T16:38:39.764Z,99587.92
2017-09-26T16:41:06.002Z,99592.95
2017-09-26T16:43:32.237Z,99594.34
2017-09-26T16:45:58.481Z,99596.51
2017-09-26T16:48:24.690Z,99594.08
2017-09-26T16:50:50.909Z,99595.45
2017-09-26T16:53:17.155Z,99601.73
2017-09-26T16:55:43.378Z,99608.48
2017-09-26T16:58:09.604Z,99609.84
2017-09-26T17:00:35.839Z,99616.47
2017-09-26T17:03:02.081Z,99614.91
2017-09-26T17:05:28.294Z,99612.66
2017-09-26T17:07:54.516Z,99620.75
2017-09-26T17:10:20.763Z,99629.47
2017-09-26T17:12:46.980Z,99625.02
2017-09-26T17:15:13.201Z,99637.70
2017-09-26T17:17:39.432Z,99641.22
2017-09-26T17:20:05.674Z,99644.66
2017-09-26T17:22:31.899Z,99647.37
2017-09-26T17:24:58.139Z,99649.33
2017-09-26T17:27:24.351Z,99651.73
2017-09-26T17:29:50.590Z,99660.28
2017-09-26T17:32:16.804Z,99663.19
2017-09-26T17:34:43.034Z,99668.31
2017-09-26T17:37:09.317Z,99669.34
2017-09-26T17:39:35.498Z,99673.41
2017-09-26T17:42:01.731Z,99677.57
2017-09-26T17:44:27.891Z,99677.22
2017-09-26T17:46:54.091Z,99684.18
2017-09-26T17:49:20.320Z,99683.15
2017-09-26T17:51:46.551Z,99683.94
2017-09-26T17:54:12.774Z,99684.24
2017-09-26T17:56:39.013Z,99688.80
2017-09-26T17:59:05.240Z,99687.86
2017-09-26T18:01:31.462Z,99693.34
2017-09-26T18:03:57.693Z,99690.57
2017-09-26T18:06:23.939Z,99684.30
2017-09-26T18:08:50.177Z,99688.77
2017-09-26T18:11:16.394Z,99688.86
2017-09-26T18:13:42.625Z,99695.53
2017-09-26T18:16:08.842Z,99692.66
2017-09-26T18:18:35.080Z,99703.41
2017-09-26T18:21:01.320Z,99697.89
2017-09-26T18:23:27.537Z,99702.56
2017-09-26T18:25:53.782Z,99703.80
2017-09-26T18:28:19.986Z,99710.63
2017-09-26T18:30:46.213Z,99712.08
2017-09-26T18:33:12.380Z,99710.18
2017-09-26T18:35:38.578Z,99715.06
2017-09-26T18:38:04.812Z,99710.87
2017-09-26T18:40:31.027Z,99708.33
2017-09-26T18:42:57.286Z,99709.88
2017-09-26T18:45:23.506Z,99709.16
2017-09-26T18:47:49.722Z,99715.70
2017-09-26T18:50:15.982Z,99718.81
2017-09-26T18:52:42.200Z,99720.92
2017-09-26T18:55:08.428Z,99724.64
2017-09-26T18:57:34.631Z,99723.70
2017-09-26T19:00:00.887Z,99728.06
2017-09-26T19:02:27.105Z,99729.18
2017-09-26T19:04:53.340Z,99731.07
2017-09-26T19:07:19.568Z,99731.83
2017-09-26T19:09:45.801Z,99736.36
2017-09-26T19:12:12.026Z,99743.39
2017-09-26T19:14:38.256Z,99740.06
2017-09-26T19:17:04.487Z,99741.17
2017-09-26T19:19:30.706Z,99743.56
2017-09-26T19:21:56.955Z,99743.57
2017-09-26T19:24:23.156Z,99746.06
2017-09-26T19:26:49.399Z,99750.31
2017-09-26T19:29:16.635Z,99750.24
2017-09-26T19:31:42.888Z,99751.28
2017-09-26T19:34:09.102Z,99750.63
2017-09-26T19:36:35.339Z,99753.00
2017-09-26T19:39:01.562Z,99753.74
2017-09-26T19:41:27.791Z,99757.33
2017-09-26T19:43:54.044Z,99759.86
2017-09-26T19:46:20.294Z,99764.91
2017-09-26T19:48:46.484Z,99768.47
2017-09-26T19:51:12.656Z,99771.33
2017-09-26T19:53:38.845Z,99769.84
2017-09-26T19:56:05.093Z,99765.56
2017-09-26T19:58:31.256Z,99768.23
2017-09-26T20:00:57.431Z,99775.56
2017-09-26T20:03:23.679Z,99773.61
2017-09-26T20:05:49.883Z,99774.09
2017-09-26T20:08:16.049Z,99772.02
2017-09-26T20:10:42.264Z,99771.20
2017-09-26T20:13:08.486Z,99778.42
2017-09-26T20:15:34.713Z,99786.19
2017-09-26T20:18:00.953Z,99780.81
2017-09-26T20:20:27.179Z,99781.55
2017-09-26T20:22:53.402Z,99787.83
2017-09-26T20:25:19.644Z,99780.06
2017-09-26T20:27:45.871Z,99785.26
2017-09-26T20:30:12.104Z,99787.95
2017-09-26T20:32:38.311Z,99788.19
2017-09-26T20:35:04.562Z,99792.28
2017-09-26T20:37:30.784Z,99792.28
2017-09-26T20:39:56.931Z,99787.02
2017-09-26T20:42:23.126Z,99784.95
2017-09-26T20:44:49.371Z,99791.62
2017-09-26T20:47:15.602Z,99788.89
2017-09-26T20:49:41.834Z,99787.80
2017-09-26T20:52:08.050Z,99791.42
2017-09-26T20:54:34.213Z,99794.91
2017-09-26T20:57:00.422Z,99791.90
2017-09-26T20:59:26.639Z,99788.85
2017-09-26T21:01:52.868Z,99792.25
2017-09-26T21:04:19.114Z,99794.97
2017-09-26T21:06:45.326Z,99791.03
2017-09-26T21:09:11.562Z,99793.30
2017-09-26T21:11:37.783Z,99788.26
2017-09-26T21:14:04.054Z,99784.09
2017-09-26T21:16:30.265Z,99787.00
2017-09-26T21:18:56.513Z,99785.20
2017-09-26T21:21:22.716Z,99780.25
2017-09-26T21:23:48.931Z,99785.78
2017-09-26T21:26:15.180Z,99787.70
2017-09-26T21:28:41.386Z,99789.73
2017-09-26T21:31:07.623Z,99784.31
2017-09-26T21:33:33.851Z,99784.55
2017-09-26T21:36:00.098Z,99790.20
2017-09-26T21:38:26.336Z,99793.02
2017-09-26T21:40:52.543Z,99805.18
2017-09-26T21:43:18.792Z,99797.77
2017-09-26T21:45:45.036Z,99796.08
2017-09-26T21:48:11.272Z,99801.86
2017-09-26T21:50:37.468Z,99807.20
2017-09-26T21:53:03.694Z,99808.17
2017-09-26T21:55:29.932Z,99804.11
2017-09-26T21:57:56.178Z,99802.87
2017-09-26T22:00:22.399Z,99808.13
2017-09-26T22:02:48.617Z,99810.18
2017-09-26T22:05:14.882Z,99811.53
2017-09-26T22:07:41.090Z,99815.00
2017-09-26T22:10:07.312Z,99812.89
2017-09-26T22:12:33.552Z,99817.75
2017-09-26T22:14:59.780Z,99811.27
2017-09-26T22:17:25.987Z,99815.32
2017-09-26T22:19:52.250Z,99811.45
2017-09-26T22:22:18.451Z,99813.21
2017-09-26T22:24:44.709Z,99816.61
2017-09-26T22:27:10.911Z,99814.50
2017-09-26T22:29:37.169Z,99808.08
2017-09-26T22:32:03.399Z,99807.03
2017-09-26T22:34:29.630Z,99809.05
2017-09-26T22:36:55.814Z,99816.59
2017-09-26T22:39:22.077Z,99816.30
2017-09-26T22:41:48.316Z,99819.42
2017-09-26T22:44:14.542Z,99821.77
2017-09-26T22:46:40.768Z,99823.95
2017-09-26T22:49:06.974Z,99823.48
2017-09-26T22:51:33.235Z,99824.56
2017-09-26T22:53:59.430Z,99821.30
2017-09-26T22:56:25.685Z,99830.19
2017-09-26T22:58:51.931Z,99822.06
2017-09-26T23:01:18.169Z,99826.91
2017-09-26T23:03:44.396Z,99832.09
2017-09-26T23:06:10.601Z,99829.44
2017-09-26T23:08:36.822Z,99832.47
2017-09-26T23:11:03.052Z,99837.36
2017-09-26T23:13:29.301Z,99841.37
2017-09-26T23:15:55.518Z,99836.97
2017-09-26T23:18:21.727Z,99829.83
2017-09-26T23:20:48.055Z,99840.58
2017-09-26T23:23:14.320Z,99839.98
2017-09-26T23:25:40.561Z,99841.41
2017-09-26T23:28:06.769Z,99838.30
2017-09-26T23:30:33.016Z,99837.05
2017-09-26T23:32:59.233Z,99842.84
2017-09-26T23:37:56.794Z,99842.41
2017-09-26T23:40:23.045Z,99842.16
2017-09-26T23:42:49.286Z,99848.33
2017-09-26T23:45:15.525Z,99846.67
2017-09-26T23:47:41.737Z,99855.67
2017-09-26T23:50:07.974Z,99846.72
2017-09-26T23:52:34.200Z,99843.84
2017-09-26T23:55:00.424Z,99847.25
2017-09-26T23:57:26.639Z,99844.03
2017-09-26T23:59:52.876Z,99852.77
